Terminal Aerodrome Forecast
Issued by NWS

Home | Current Version | Previous Version | Text Only | Print | Product List | Glossary Off
Versions: 1 2 3 4 5 6 7 8 9 10 11 12 13 14 15 16 17 18 19 20 21

000
FTUS43 KBIS 282335
TAFDIK
TAF
KDIK 282335Z 2900/2924 VRB04KT P6SM SKC
     FM290600 22005KT P6SM SCT150
     FM291700 36008KT P6SM FEW200=

USA.gov is the U.S. government's official web portal to all federal, state and local government web resources and services.